Time,TemperatureF,DewpointF,PressureIn,WindDirection,WindDirectionDegrees,WindSpeedMPH,WindSpeedGustMPH,Humidity,HourlyPrecipIn,Conditions,Clouds,dailyrainin,SoftwareType,DateUTC
2013-10-17 00:00:00,62.4,59.7,29.73,SW,225,8.8,8.8,91,0.00,RA,,0.00,WeatherDisplay:10.37,2013-10-17 04:00:00,
2013-10-17 00:01:00,62.4,59.7,29.73,SW,225,9.2,9.2,91,0.00,RA,,0.00,WeatherDisplay:10.37,2013-10-17 04:01:00,
2013-10-17 00:02:00,62.4,59.7,29.73,WSW,248,9.2,9.2,91,0.00,RA,,0.00,WeatherDisplay:10.37,2013-10-17 04:02:00,
2013-10-17 00:04:00,62.4,59.7,29.73,SW,229,6.0,9.0,91,0.00,RA,,0.00,WeatherDisplay:10.37,2013-10-17 04:04:00,
2013-10-17 00:05:00,62.4,59.7,29.73,SW,225,8.1,8.1,91,0.00,RA,,0.00,WeatherDisplay:10.37,2013-10-17 04:05:00,
2013-10-17 00:10:00,62.4,59.7,29.73,WSW,248,6.9,6.9,91,0.00,OVC,,0.00,WeatherDisplay:10.37,2013-10-17 04:10:00,
2013-10-17 00:15:00,62.4,59.7,29.73,SW,225,5.8,5.8,91,0.00,OVC,,0.00,WeatherDisplay:10.37,2013-10-17 04:15:00,
2013-10-17 00:20:00,62.4,59.7,29.73,SSW,202,5.8,5.8,91,0.00,OVC,,0.00,WeatherDisplay:10.37,2013-10-17 04:20:00,
2013-10-17 00:25:00,62.4,59.7,29.73,SW,225,6.9,6.9,91,0.00,OVC,,0.00,WeatherDisplay:10.37,2013-10-17 04:25:00,
2013-10-17 00:30:00,62.4,59.7,29.73,SW,225,5.8,5.8,91,0.00,OVC,,0.00,WeatherDisplay:10.37,2013-10-17 04:30:00,
2013-10-17 00:35:00,62.4,59.7,29.72,SW,225,6.9,6.9,91,0.00,OVC,,0.00,WeatherDisplay:10.37,2013-10-17 04:35:00,
2013-10-17 00:40:00,62.4,59.7,29.72,WSW,248,6.3,6.3,91,0.00,OVC,,0.00,WeatherDisplay:10.37,2013-10-17 04:40:00,
2013-10-17 00:45:00,62.4,59.7,29.72,SSW,202,5.8,5.8,91,0.00,OVC,,0.00,WeatherDisplay:10.37,2013-10-17 04:45:00,
2013-10-17 00:50:00,62.2,59.5,29.72,SW,225,5.3,5.3,91,0.00,OVC,,0.00,WeatherDisplay:10.37,2013-10-17 04:50:00,
2013-10-17 00:55:00,62.2,59.5,29.72,SW,225,4.6,4.6,91,0.00,OVC,,0.00,WeatherDisplay:10.37,2013-10-17 04:55:00,
2013-10-17 01:00:00,62.2,59.5,29.72,WSW,248,6.9,6.9,91,0.00,OVC,,0.00,WeatherDisplay:10.37,2013-10-17 05:00:00,
2013-10-17 01:05:00,62.2,59.5,29.72,SSW,202,4.7,4.7,91,0.00,OVC,,0.00,WeatherDisplay:10.37,2013-10-17 05:05:00,
2013-10-17 01:10:00,62.1,59.7,29.72,SW,225,4.6,4.6,92,0.00,OVC,,0.00,WeatherDisplay:10.37,2013-10-17 05:10:00,
2013-10-17 01:15:00,62.1,59.7,29.72,SW,225,5.8,5.8,92,0.00,OVC,,0.00,WeatherDisplay:10.37,2013-10-17 05:15:00,
2013-10-17 01:20:00,62.1,59.7,29.72,West,270,3.7,3.7,92,0.00,OVC,,0.00,WeatherDisplay:10.37,2013-10-17 05:20:00,
2013-10-17 01:25:00,62.1,59.7,29.73,WNW,292,6.8,6.8,92,0.00,OVC,,0.00,WeatherDisplay:10.37,2013-10-17 05:25:00,
2013-10-17 01:30:00,61.0,58.4,29.73,WSW,248,8.1,8.1,91,0.00,OVC,,0.01,WeatherDisplay:10.37,2013-10-17 05:30:00,
2013-10-17 01:35:00,60.4,58.1,29.73,West,270,6.9,6.9,92,0.01,-RA,,0.01,WeatherDisplay:10.37,2013-10-17 05:35:00,
2013-10-17 01:40:00,60.1,58.1,29.73,North,360,9.2,9.2,93,0.02,-RA,,0.02,WeatherDisplay:10.37,2013-10-17 05:40:00,
2013-10-17 01:45:00,59.2,57.2,29.73,West,270,10.4,10.4,93,0.03,-RA,,0.03,WeatherDisplay:10.37,2013-10-17 05:45:00,
2013-10-17 01:50:00,58.3,56.0,29.73,SW,225,9.2,9.2,92,0.03,-RA,,0.03,WeatherDisplay:10.37,2013-10-17 05:50:00,
2013-10-17 01:55:00,57.6,55.3,29.73,WNW,292,8.1,8.1,92,0.03,-RA,,0.03,WeatherDisplay:10.37,2013-10-17 05:55:00,
2013-10-17 02:00:00,57.6,55.3,29.74,NW,315,8.1,8.1,92,0.03,-RA,,0.03,WeatherDisplay:10.37,2013-10-17 06:00:00,
2013-10-17 02:05:00,57.4,55.1,29.74,West,270,8.1,8.1,92,0.03,-RA,,0.03,WeatherDisplay:10.37,2013-10-17 06:05:00,
2013-10-17 02:10:00,57.2,54.9,29.74,NNW,338,6.9,6.9,92,0.03,-RA,,0.03,WeatherDisplay:10.37,2013-10-17 06:10:00,
2013-10-17 02:15:00,57.2,54.9,29.74,WNW,292,4.6,4.6,92,0.03,-RA,,0.03,WeatherDisplay:10.37,2013-10-17 06:15:00,
2013-10-17 02:20:00,57.0,54.7,29.74,West,270,4.6,4.6,92,0.03,-RA,,0.03,WeatherDisplay:10.37,2013-10-17 06:20:00,
2013-10-17 02:25:00,57.0,54.7,29.73,West,270,3.7,3.7,92,0.03,-RA,,0.03,WeatherDisplay:10.37,2013-10-17 06:25:00,
2013-10-17 02:30:00,57.0,55.0,29.73,East,90,4.2,4.2,93,0.03,-RA,,0.03,WeatherDisplay:10.37,2013-10-17 06:30:00,
2013-10-17 02:35:00,57.0,54.7,29.73,West,270,4.6,4.6,92,0.02,-RA,,0.03,WeatherDisplay:10.37,2013-10-17 06:35:00,
2013-10-17 02:40:00,57.0,54.7,29.73,WNW,292,3.7,3.7,92,0.01,-RA,,0.03,WeatherDisplay:10.37,2013-10-17 06:40:00,
2013-10-17 02:45:00,56.8,54.5,29.73,West,270,3.7,3.7,92,0.00,-RA,,0.03,WeatherDisplay:10.37,2013-10-17 06:45:00,
2013-10-17 02:50:00,56.7,54.4,29.73,WNW,292,4.6,4.6,92,0.00,-RA,,0.03,WeatherDisplay:10.37,2013-10-17 06:50:00,
2013-10-17 02:55:00,56.7,54.4,29.73,NNE,22,2.3,2.3,92,0.00,-RA,,0.03,WeatherDisplay:10.37,2013-10-17 06:55:00,
2013-10-17 03:00:00,56.7,54.1,29.73,ENE,68,5.8,5.8,91,0.00,-RA,,0.03,WeatherDisplay:10.37,2013-10-17 07:00:00,
2013-10-17 03:05:00,56.7,54.1,29.73,West,270,4.6,4.6,91,0.00,-RA,,0.03,WeatherDisplay:10.37,2013-10-17 07:05:00,
2013-10-17 03:10:00,56.1,52.0,29.73,NW,315,6.9,6.9,86,0.00,-RA,,0.03,WeatherDisplay:10.37,2013-10-17 07:10:00,
2013-10-17 03:15:00,55.9,50.8,29.74,East,90,5.8,5.8,83,0.00,-RA,,0.03,WeatherDisplay:10.37,2013-10-17 07:15:00,
2013-10-17 03:20:00,55.8,50.7,29.74,NE,45,4.6,4.6,83,0.00,-RA,,0.03,WeatherDisplay:10.37,2013-10-17 07:20:00,
2013-10-17 03:25:00,55.4,50.6,29.73,NNW,338,4.6,4.6,84,0.00,-RA,,0.03,WeatherDisplay:10.37,2013-10-17 07:25:00,
2013-10-17 03:30:00,55.2,50.8,29.73,WNW,292,3.7,3.9,85,0.00,-RA,,0.03,WeatherDisplay:10.37,2013-10-17 07:30:00,
2013-10-17 03:35:00,55.2,50.8,29.73,WSW,248,3.5,3.5,85,0.00,OVC,,0.03,WeatherDisplay:10.37,2013-10-17 07:35:00,
2013-10-17 03:40:00,55.0,50.6,29.73,NNW,338,2.3,2.3,85,0.00,OVC,,0.03,WeatherDisplay:10.37,2013-10-17 07:40:00,
2013-10-17 03:45:00,55.0,50.6,29.73,West,270,3.5,3.5,85,0.00,OVC,,0.03,WeatherDisplay:10.37,2013-10-17 07:45:00,
2013-10-17 03:50:00,55.0,51.2,29.73,West,270,2.7,2.9,87,0.00,OVC,,0.03,WeatherDisplay:10.37,2013-10-17 07:50:00,
2013-10-17 03:55:00,54.9,51.1,29.73,NW,315,3.5,3.5,87,0.00,OVC,,0.03,WeatherDisplay:10.37,2013-10-17 07:55:00,
2013-10-17 04:00:00,54.9,50.8,29.73,NNE,22,1.7,1.8,86,0.00,OVC,,0.03,WeatherDisplay:10.37,2013-10-17 08:00:00,
2013-10-17 04:05:00,54.9,50.5,29.73,East,90,3.2,3.3,85,0.00,OVC,,0.03,WeatherDisplay:10.37,2013-10-17 08:05:00,
2013-10-17 04:10:00,55.0,50.6,29.73,WSW,248,4.6,4.6,85,0.00,OVC,,0.03,WeatherDisplay:10.37,2013-10-17 08:10:00,
2013-10-17 04:15:00,55.0,50.6,29.73,ESE,112,2.3,2.3,85,0.00,OVC,,0.03,WeatherDisplay:10.37,2013-10-17 08:15:00,
2013-10-17 04:20:00,55.0,50.6,29.73,East,90,3.5,3.5,85,0.00,OVC,,0.03,WeatherDisplay:10.37,2013-10-17 08:20:00,
2013-10-17 04:25:00,55.0,50.9,29.73,ESE,112,2.3,2.3,86,0.00,OVC,,0.03,WeatherDisplay:10.37,2013-10-17 08:25:00,
2013-10-17 04:30:00,55.0,50.9,29.73,SE,135,3.5,3.5,86,0.00,OVC,,0.03,WeatherDisplay:10.37,2013-10-17 08:30:00,
2013-10-17 04:35:00,55.0,50.9,29.73,ESE,112,2.3,2.3,86,0.00,OVC,,0.03,WeatherDisplay:10.37,2013-10-17 08:35:00,
2013-10-17 04:40:00,55.0,51.2,29.73,NE,45,2.3,2.3,87,0.00,OVC,,0.03,WeatherDisplay:10.37,2013-10-17 08:40:00,
2013-10-17 04:45:00,54.9,51.1,29.73,NW,315,0.0,0.0,87,0.00,OVC,,0.03,WeatherDisplay:10.37,2013-10-17 08:45:00,
2013-10-17 04:50:00,54.9,51.4,29.73,East,90,2.3,2.3,88,0.00,OVC,,0.03,WeatherDisplay:10.37,2013-10-17 08:50:00,
2013-10-17 04:55:00,54.9,51.4,29.73,ESE,112,1.1,1.1,88,0.00,OVC,,0.03,WeatherDisplay:10.37,2013-10-17 08:55:00,
2013-10-17 05:00:00,54.9,51.4,29.73,ESE,112,2.7,2.7,88,0.00,OVC,,0.03,WeatherDisplay:10.37,2013-10-17 09:00:00,
2013-10-17 05:05:00,54.9,51.4,29.73,ESE,112,2.7,2.7,88,0.00,OVC,,0.03,WeatherDisplay:10.37,2013-10-17 09:05:00,
2013-10-17 05:10:00,54.9,51.4,29.73,SE,135,1.1,1.1,88,0.00,OVC,,0.03,WeatherDisplay:10.37,2013-10-17 09:10:00,
2013-10-17 05:15:00,54.9,51.4,29.73,SSE,158,2.7,2.8,88,0.00,OVC,,0.03,WeatherDisplay:10.37,2013-10-17 09:15:00,
2013-10-17 05:20:00,54.7,51.2,29.73,ESE,112,3.5,3.5,88,0.00,OVC,,0.03,WeatherDisplay:10.37,2013-10-17 09:20:00,
2013-10-17 05:25:00,54.7,51.5,29.73,SE,135,2.7,2.7,89,0.00,OVC,,0.03,WeatherDisplay:10.37,2013-10-17 09:25:00,
2013-10-17 05:30:00,54.5,51.3,29.73,ESE,112,3.5,3.5,89,0.00,OVC,,0.03,WeatherDisplay:10.37,2013-10-17 09:30:00,
2013-10-17 05:35:00,54.5,51.6,29.73,ESE,112,0.0,0.0,90,0.00,OVC,,0.03,WeatherDisplay:10.37,2013-10-17 09:35:00,
2013-10-17 05:40:00,54.5,51.6,29.73,East,90,1.7,1.7,90,0.00,OVC,,0.03,WeatherDisplay:10.37,2013-10-17 09:40:00,
2013-10-17 05:45:00,54.5,51.6,29.73,NNE,22,2.3,2.3,90,0.00,OVC,,0.03,WeatherDisplay:10.37,2013-10-17 09:45:00,
2013-10-17 05:50:00,54.5,51.9,29.73,West,270,2.7,2.8,91,0.00,OVC,,0.03,WeatherDisplay:10.37,2013-10-17 09:50:00,
2013-10-17 05:55:00,54.5,52.2,29.73,WSW,248,0.0,0.0,92,0.00,OVC,,0.03,WeatherDisplay:10.37,2013-10-17 09:55:00,
2013-10-17 06:00:00,54.3,52.0,29.74,ENE,68,0.0,0.0,92,0.00,OVC,,0.03,WeatherDisplay:10.37,2013-10-17 10:00:00,
2013-10-17 06:05:00,54.3,51.4,29.74,SE,135,0.0,0.0,90,0.00,OVC,,0.03,WeatherDisplay:10.37,2013-10-17 10:05:00,
2013-10-17 06:10:00,54.5,51.3,29.74,ESE,112,0.0,0.0,89,0.00,OVC,,0.03,WeatherDisplay:10.37,2013-10-17 10:10:00,
2013-10-17 06:15:00,54.7,52.4,29.74,East,90,1.1,0.0,92,0.00,OVC,,0.03,WeatherDisplay:10.37,2013-10-17 10:15:00,
2013-10-17 06:20:00,54.3,52.0,29.74,West,270,1.1,0.0,92,0.00,OVC,,0.03,WeatherDisplay:10.37,2013-10-17 10:20:00,
2013-10-17 06:25:00,54.3,52.0,29.74,WSW,248,0.0,0.0,92,0.00,OVC,,0.03,WeatherDisplay:10.37,2013-10-17 10:25:00,
2013-10-17 06:30:00,54.1,51.8,29.74,ESE,112,0.0,0.0,92,0.00,OVC,,0.03,WeatherDisplay:10.37,2013-10-17 10:30:00,
2013-10-17 06:35:00,54.5,51.6,29.73,ESE,112,2.3,2.3,90,0.00,OVC,,0.03,WeatherDisplay:10.37,2013-10-17 10:35:00,
2013-10-17 06:40:00,54.5,51.6,29.73,East,90,0.0,0.0,90,0.00,OVC,,0.03,WeatherDisplay:10.37,2013-10-17 10:40:00,
2013-10-17 06:45:00,54.5,51.9,29.73,WSW,248,0.0,0.0,91,0.00,OVC,,0.03,WeatherDisplay:10.37,2013-10-17 10:45:00,
2013-10-17 06:50:00,54.5,51.6,29.73,ESE,112,1.1,1.1,90,0.00,OVC,,0.03,WeatherDisplay:10.37,2013-10-17 10:50:00,
2013-10-17 06:55:00,54.5,51.6,29.73,NE,45,0.0,0.0,90,0.00,OVC,,0.03,WeatherDisplay:10.37,2013-10-17 10:55:00,
2013-10-17 07:00:00,54.5,51.9,29.73,West,270,0.0,0.0,91,0.00,OVC,,0.03,WeatherDisplay:10.37,2013-10-17 11:00:00,
2013-10-17 07:05:00,54.5,52.2,29.73,SW,225,1.7,1.7,92,0.00,OVC,,0.03,WeatherDisplay:10.37,2013-10-17 11:05:00,
2013-10-17 07:10:00,54.3,52.3,29.73,WNW,292,0.0,0.0,93,0.00,OVC,,0.03,WeatherDisplay:10.37,2013-10-17 11:10:00,
2013-10-17 07:15:00,54.0,52.0,29.73,WNW,292,0.0,0.0,93,0.00,OVC,,0.03,WeatherDisplay:10.37,2013-10-17 11:15:00,
2013-10-17 07:20:00,54.0,51.7,29.73,ENE,68,0.0,0.0,92,0.00,OVC,,0.03,WeatherDisplay:10.37,2013-10-17 11:20:00,
2013-10-17 07:25:00,54.3,51.4,29.73,East,90,3.5,3.5,90,0.00,OVC,,0.03,WeatherDisplay:10.37,2013-10-17 11:25:00,
2013-10-17 07:30:00,54.3,51.4,29.73,East,90,2.3,2.3,90,0.00,OVC,,0.03,WeatherDisplay:10.37,2013-10-17 11:30:00,
2013-10-17 07:35:00,54.3,51.4,29.73,ENE,68,3.2,3.2,90,0.00,OVC,,0.03,WeatherDisplay:10.37,2013-10-17 11:35:00,
2013-10-17 07:40:00,54.3,51.1,29.73,South,180,3.5,3.5,89,0.00,OVC,,0.03,WeatherDisplay:10.37,2013-10-17 11:40:00,
2013-10-17 07:45:00,54.3,51.1,29.73,ESE,112,2.3,2.3,89,0.00,OVC,,0.03,WeatherDisplay:10.37,2013-10-17 11:45:00,
2013-10-17 07:50:00,54.3,51.1,29.73,WNW,292,2.3,2.3,89,0.00,OVC,,0.03,WeatherDisplay:10.37,2013-10-17 11:50:00,
2013-10-17 07:55:00,54.3,51.1,29.73,NNW,338,3.5,3.5,89,0.00,OVC,,0.03,WeatherDisplay:10.37,2013-10-17 11:55:00,
2013-10-17 08:00:00,54.3,51.1,29.73,NE,45,2.7,2.7,89,0.00,OVC,,0.03,WeatherDisplay:10.37,2013-10-17 12:00:00,
2013-10-17 08:05:00,54.3,51.1,29.73,ESE,112,1.1,0.0,89,0.00,OVC,,0.03,WeatherDisplay:10.37,2013-10-17 12:05:00,
2013-10-17 08:10:00,54.3,51.4,29.73,ESE,112,3.7,3.7,90,0.00,OVC,,0.03,WeatherDisplay:10.37,2013-10-17 12:10:00,
2013-10-17 08:15:00,54.3,51.7,29.73,ENE,68,2.7,2.7,91,0.00,OVC,,0.03,WeatherDisplay:10.37,2013-10-17 12:15:00,
2013-10-17 08:20:00,54.3,51.4,29.73,ESE,112,3.5,3.5,90,0.00,OVC,,0.03,WeatherDisplay:10.37,2013-10-17 12:20:00,
2013-10-17 08:25:00,54.5,51.6,29.72,ESE,112,2.3,2.5,90,0.00,OVC,,0.03,WeatherDisplay:10.37,2013-10-17 12:25:00,
2013-10-17 08:30:00,54.9,52.0,29.72,ESE,112,1.7,1.7,90,0.00,OVC,,0.03,WeatherDisplay:10.37,2013-10-17 12:30:00,
2013-10-17 08:35:00,54.9,52.0,29.73,SE,135,0.0,0.0,90,0.00,OVC,,0.03,WeatherDisplay:10.37,2013-10-17 12:35:00,
2013-10-17 08:40:00,54.9,52.0,29.73,SE,135,0.0,0.0,90,0.00,OVC,,0.03,WeatherDisplay:10.37,2013-10-17 12:40:00,
2013-10-17 08:45:00,54.9,52.0,29.73,SE,135,0.0,0.0,90,0.00,OVC,,0.03,WeatherDisplay:10.37,2013-10-17 12:45:00,
2013-10-17 08:50:00,54.9,52.0,29.73,SE,135,0.0,0.0,90,0.00,OVC,,0.03,WeatherDisplay:10.37,2013-10-17 12:50:00,
2013-10-17 08:55:00,54.9,52.0,29.73,SE,135,0.0,0.0,90,0.00,OVC,,0.03,WeatherDisplay:10.37,2013-10-17 12:55:00,
2013-10-17 09:00:00,54.9,52.0,29.73,SE,135,0.0,0.0,90,0.00,OVC,,0.03,WeatherDisplay:10.37,2013-10-17 13:00:00,
2013-10-17 09:05:00,54.9,52.0,29.73,SE,135,0.0,0.0,90,0.00,OVC,,0.03,WeatherDisplay:10.37,2013-10-17 13:05:00,
2013-10-17 09:10:00,54.9,52.0,29.73,SE,135,0.0,0.0,90,0.00,OVC,,0.03,WeatherDisplay:10.37,2013-10-17 13:10:00,
2013-10-17 09:15:00,54.9,52.0,29.73,SE,135,0.0,0.0,90,0.00,OVC,,0.03,WeatherDisplay:10.37,2013-10-17 13:15:00,
2013-10-17 09:20:00,54.9,52.0,29.73,SE,135,0.0,0.0,90,0.00,OVC,,0.03,WeatherDisplay:10.37,2013-10-17 13:20:00,
2013-10-17 09:25:00,54.9,52.0,29.73,SE,135,0.0,0.0,90,0.00,OVC,,0.03,WeatherDisplay:10.37,2013-10-17 13:25:00,
2013-10-17 09:30:00,54.9,52.0,29.73,SE,135,0.0,0.0,90,0.00,OVC,,0.03,WeatherDisplay:10.37,2013-10-17 13:30:00,
2013-10-17 09:35:00,54.9,52.0,29.73,SE,135,0.0,0.0,90,0.00,OVC,,0.03,WeatherDisplay:10.37,2013-10-17 13:35:00,
2013-10-17 09:40:00,54.9,52.0,29.73,SE,135,0.0,0.0,90,0.00,OVC,,0.03,WeatherDisplay:10.37,2013-10-17 13:40:00,
2013-10-17 09:45:00,54.9,52.0,29.73,SE,135,0.0,0.0,90,0.00,OVC,,0.03,WeatherDisplay:10.37,2013-10-17 13:45:00,
2013-10-17 09:50:00,54.9,52.0,29.73,SE,135,0.0,0.0,90,0.00,OVC,,0.03,WeatherDisplay:10.37,2013-10-17 13:50:00,
2013-10-17 09:55:00,54.9,52.0,29.73,SE,135,0.0,0.0,90,0.00,OVC,,0.03,WeatherDisplay:10.37,2013-10-17 13:55:00,
2013-10-17 10:00:00,54.9,52.0,29.73,SE,135,0.0,0.0,90,0.00,OVC,,0.03,WeatherDisplay:10.37,2013-10-17 14:00:00,
2013-10-17 10:05:00,54.9,52.0,29.73,SE,135,0.0,0.0,90,0.00,OVC,,0.03,WeatherDisplay:10.37,2013-10-17 14:05:00,
2013-10-17 10:10:00,54.9,52.0,29.73,SE,135,0.0,0.0,90,0.00,OVC,,0.03,WeatherDisplay:10.37,2013-10-17 14:10:00,
2013-10-17 10:15:00,54.9,52.0,29.73,SE,135,0.0,0.0,90,0.00,OVC,,0.03,WeatherDisplay:10.37,2013-10-17 14:15:00,
2013-10-17 10:20:00,54.9,52.0,29.73,SE,135,0.0,0.0,90,0.00,OVC,,0.03,WeatherDisplay:10.37,2013-10-17 14:20:00,
2013-10-17 10:26:00,54.9,52.0,29.73,SE,135,0.0,0.0,90,0.00,OVC,,0.03,WeatherDisplay:10.37,2013-10-17 14:26:00,
2013-10-17 10:31:00,54.9,52.0,29.73,SE,135,0.0,0.0,90,0.00,OVC,,0.03,WeatherDisplay:10.37,2013-10-17 14:31:00,
2013-10-17 10:36:00,54.9,52.0,29.73,SE,135,0.0,0.0,90,0.00,OVC,,0.03,WeatherDisplay:10.37,2013-10-17 14:36:00,
2013-10-17 10:41:00,54.9,52.0,29.73,SE,135,0.0,0.0,90,0.00,OVC,,0.03,WeatherDisplay:10.37,2013-10-17 14:41:00,
2013-10-17 10:46:00,54.9,52.0,29.73,SE,135,0.0,0.0,90,0.00,OVC,,0.03,WeatherDisplay:10.37,2013-10-17 14:46:00,
2013-10-17 10:51:00,54.9,52.0,29.73,SE,135,0.0,0.0,90,0.00,OVC,,0.03,WeatherDisplay:10.37,2013-10-17 14:51:00,
2013-10-17 10:56:00,54.9,52.0,29.73,SE,135,0.0,0.0,90,0.00,OVC,,0.03,WeatherDisplay:10.37,2013-10-17 14:56:00,
2013-10-17 11:01:00,54.9,52.0,29.73,SE,135,0.0,0.0,90,0.00,OVC,,0.03,WeatherDisplay:10.37,2013-10-17 15:01:00,
2013-10-17 11:06:00,54.9,52.0,29.73,SE,135,0.0,0.0,90,0.00,OVC,,0.03,WeatherDisplay:10.37,2013-10-17 15:06:00,
2013-10-17 11:11:00,54.9,52.0,29.73,SE,135,0.0,0.0,90,0.00,OVC,,0.03,WeatherDisplay:10.37,2013-10-17 15:11:00,
2013-10-17 11:16:00,54.9,52.0,29.73,SE,135,0.0,0.0,90,0.00,OVC,,0.03,WeatherDisplay:10.37,2013-10-17 15:16:00,
2013-10-17 11:21:00,54.9,52.0,29.73,SE,135,0.0,0.0,90,0.00,OVC,,0.03,WeatherDisplay:10.37,2013-10-17 15:21:00,
2013-10-17 11:26:00,54.9,52.0,29.73,SE,135,0.0,0.0,90,0.00,OVC,,0.03,WeatherDisplay:10.37,2013-10-17 15:26:00,
2013-10-17 11:31:00,54.9,52.0,29.73,SE,135,0.0,0.0,90,0.00,OVC,,0.03,WeatherDisplay:10.37,2013-10-17 15:31:00,
2013-10-17 11:36:00,54.9,52.0,29.73,SE,135,0.0,0.0,90,0.00,OVC,,0.03,WeatherDisplay:10.37,2013-10-17 15:36:00,
2013-10-17 11:41:00,54.9,52.0,29.73,SE,135,0.0,0.0,90,0.00,OVC,,0.03,WeatherDisplay:10.37,2013-10-17 15:41:00,
2013-10-17 11:46:00,54.9,52.0,29.73,SE,135,0.0,0.0,90,0.00,OVC,,0.03,WeatherDisplay:10.37,2013-10-17 15:46:00,
2013-10-17 11:51:00,54.9,52.0,29.73,SE,135,0.0,0.0,90,0.00,OVC,,0.03,WeatherDisplay:10.37,2013-10-17 15:51:00,
2013-10-17 11:56:00,54.9,52.0,29.73,SE,135,0.0,0.0,90,0.00,OVC,,0.03,WeatherDisplay:10.37,2013-10-17 15:56:00,
2013-10-17 12:01:00,54.9,52.0,29.73,SE,135,0.0,0.0,90,0.00,OVC,,0.03,WeatherDisplay:10.37,2013-10-17 16:01:00,
2013-10-17 12:06:00,54.9,52.0,29.73,SE,135,0.0,0.0,90,0.00,OVC,,0.03,WeatherDisplay:10.37,2013-10-17 16:06:00,
2013-10-17 12:11:00,54.9,52.0,29.73,SE,135,0.0,0.0,90,0.00,OVC,,0.03,WeatherDisplay:10.37,2013-10-17 16:11:00,
2013-10-17 12:16:00,54.9,52.0,29.73,SE,135,0.0,0.0,90,0.00,OVC,,0.03,WeatherDisplay:10.37,2013-10-17 16:16:00,
2013-10-17 12:21:00,54.9,52.0,29.73,SE,135,0.0,0.0,90,0.00,OVC,,0.03,WeatherDisplay:10.37,2013-10-17 16:21:00,
2013-10-17 12:26:00,54.9,52.0,29.73,SE,135,0.0,0.0,90,0.00,OVC,,0.03,WeatherDisplay:10.37,2013-10-17 16:26:00,
2013-10-17 12:31:00,54.9,52.0,29.73,SE,135,0.0,0.0,90,0.00,OVC,,0.03,WeatherDisplay:10.37,2013-10-17 16:31:00,
2013-10-17 12:36:00,54.9,52.0,29.73,SE,135,0.0,0.0,90,0.00,OVC,,0.03,WeatherDisplay:10.37,2013-10-17 16:36:00,
2013-10-17 12:41:00,54.9,52.0,29.73,SE,135,0.0,0.0,90,0.00,OVC,,0.03,WeatherDisplay:10.37,2013-10-17 16:41:00,
2013-10-17 12:46:00,54.9,52.0,29.73,SE,135,0.0,0.0,90,0.00,OVC,,0.03,WeatherDisplay:10.37,2013-10-17 16:46:00,
2013-10-17 12:51:00,54.9,52.0,29.73,SE,135,0.0,0.0,90,0.00,OVC,,0.03,WeatherDisplay:10.37,2013-10-17 16:51:00,
2013-10-17 12:56:00,54.9,52.0,29.73,SE,135,0.0,0.0,90,0.00,OVC,,0.03,WeatherDisplay:10.37,2013-10-17 16:56:00,
2013-10-17 13:01:00,54.9,52.0,29.73,SE,135,0.0,0.0,90,0.00,OVC,,0.03,WeatherDisplay:10.37,2013-10-17 17:01:00,
2013-10-17 13:06:00,54.9,52.0,29.73,SE,135,0.0,0.0,90,0.00,OVC,,0.03,WeatherDisplay:10.37,2013-10-17 17:06:00,
2013-10-17 13:11:00,54.9,52.0,29.73,SE,135,0.0,0.0,90,0.00,OVC,,0.03,WeatherDisplay:10.37,2013-10-17 17:11:00,
2013-10-17 13:16:00,54.9,52.0,29.73,SE,135,0.0,0.0,90,0.00,OVC,,0.03,WeatherDisplay:10.37,2013-10-17 17:16:00,
2013-10-17 13:21:00,54.9,52.0,29.73,SE,135,0.0,0.0,90,0.00,OVC,,0.03,WeatherDisplay:10.37,2013-10-17 17:21:00,
2013-10-17 13:26:00,54.9,52.0,29.73,SE,135,0.0,0.0,90,0.00,OVC,,0.03,WeatherDisplay:10.37,2013-10-17 17:26:00,
2013-10-17 13:31:00,54.9,52.0,29.73,SE,135,0.0,0.0,90,0.00,OVC,,0.03,WeatherDisplay:10.37,2013-10-17 17:31:00,
2013-10-17 13:36:00,54.9,52.0,29.73,SE,135,0.0,0.0,90,0.00,OVC,,0.03,WeatherDisplay:10.37,2013-10-17 17:36:00,
2013-10-17 13:41:00,54.9,52.0,29.73,SE,135,0.0,0.0,90,0.00,OVC,,0.03,WeatherDisplay:10.37,2013-10-17 17:41:00,
2013-10-17 13:46:00,54.9,52.0,29.73,SE,135,0.0,0.0,90,0.00,OVC,,0.03,WeatherDisplay:10.37,2013-10-17 17:46:00,
2013-10-17 13:51:00,54.9,52.0,29.73,SE,135,0.0,0.0,90,0.00,OVC,,0.03,WeatherDisplay:10.37,2013-10-17 17:51:00,
2013-10-17 13:56:00,54.9,52.0,29.73,SE,135,0.0,0.0,90,0.00,OVC,,0.03,WeatherDisplay:10.37,2013-10-17 17:56:00,
2013-10-17 14:01:00,54.9,52.0,29.73,SE,135,0.0,0.0,90,0.00,OVC,,0.03,WeatherDisplay:10.37,2013-10-17 18:01:00,
2013-10-17 14:06:00,54.9,52.0,29.73,SE,135,0.0,0.0,90,0.00,OVC,,0.03,WeatherDisplay:10.37,2013-10-17 18:06:00,
2013-10-17 14:11:00,54.9,52.0,29.73,SE,135,0.0,0.0,90,0.00,OVC,,0.03,WeatherDisplay:10.37,2013-10-17 18:11:00,
2013-10-17 14:16:00,54.9,52.0,29.73,SE,135,0.0,0.0,90,0.00,OVC,,0.03,WeatherDisplay:10.37,2013-10-17 18:16:00,
2013-10-17 14:21:00,54.9,52.0,29.73,SE,135,0.0,0.0,90,0.00,OVC,,0.03,WeatherDisplay:10.37,2013-10-17 18:21:00,
2013-10-17 14:26:00,54.9,52.0,29.73,SE,135,0.0,0.0,90,0.00,OVC,,0.03,WeatherDisplay:10.37,2013-10-17 18:26:00,
2013-10-17 14:31:00,54.9,52.0,29.73,SE,135,0.0,0.0,90,0.00,-RA,,0.03,WeatherDisplay:10.37,2013-10-17 18:31:00,
2013-10-17 14:36:00,54.9,52.0,29.73,SE,135,0.0,0.0,90,0.00,-RA,,0.03,WeatherDisplay:10.37,2013-10-17 18:36:00,
2013-10-17 14:41:00,54.9,52.0,29.73,SE,135,0.0,0.0,90,0.00,-RA,,0.03,WeatherDisplay:10.37,2013-10-17 18:41:00,
2013-10-17 14:46:00,54.9,52.0,29.73,SE,135,0.0,0.0,90,0.00,-RA,,0.03,WeatherDisplay:10.37,2013-10-17 18:46:00,
2013-10-17 14:51:00,54.9,52.0,29.73,SE,135,0.0,0.0,90,0.00,-RA,,0.03,WeatherDisplay:10.37,2013-10-17 18:51:00,
2013-10-17 14:56:00,54.9,52.0,29.73,SE,135,0.0,0.0,90,0.00,-RA,,0.03,WeatherDisplay:10.37,2013-10-17 18:56:00,
2013-10-17 15:01:00,54.9,52.0,29.73,SE,135,0.0,0.0,90,0.00,-RA,,0.03,WeatherDisplay:10.37,2013-10-17 19:01:00,
2013-10-17 15:06:00,54.9,52.0,29.73,SE,135,0.0,0.0,90,0.00,-RA,,0.03,WeatherDisplay:10.37,2013-10-17 19:06:00,
2013-10-17 15:11:00,54.9,52.0,29.73,SE,135,0.0,0.0,90,0.00,-RA,,0.03,WeatherDisplay:10.37,2013-10-17 19:11:00,
2013-10-17 15:16:00,54.9,52.0,29.73,SE,135,0.0,0.0,90,0.00,-RA,,0.03,WeatherDisplay:10.37,2013-10-17 19:16:00,
2013-10-17 15:21:00,54.9,52.0,29.73,SE,135,0.0,0.0,90,0.00,-RA,,0.03,WeatherDisplay:10.37,2013-10-17 19:21:00,
2013-10-17 15:26:00,54.9,52.0,29.73,SE,135,0.0,0.0,90,0.00,-RA,,0.03,WeatherDisplay:10.37,2013-10-17 19:26:00,
2013-10-17 15:31:00,54.9,52.0,29.73,SE,135,0.0,0.0,90,0.00,-RA,,0.03,WeatherDisplay:10.37,2013-10-17 19:31:00,
2013-10-17 15:33:00,54.9,52.0,29.73,SE,135,0.0,0.0,90,0.00,-RA,,0.03,WeatherDisplay:10.37,2013-10-17 19:33:00,
2013-10-17 15:38:00,54.9,52.0,29.73,SE,135,0.0,0.0,90,0.00,-RA,,0.03,WeatherDisplay:10.37,2013-10-17 19:38:00,
2013-10-17 15:43:00,54.9,52.0,29.73,SE,135,0.0,0.0,90,0.00,-RA,,0.03,WeatherDisplay:10.37,2013-10-17 19:43:00,
2013-10-17 15:48:00,54.9,52.0,29.73,SE,135,0.0,0.0,90,0.00,-RA,,0.03,WeatherDisplay:10.37,2013-10-17 19:48:00,
2013-10-17 15:53:00,54.9,52.0,29.73,SE,135,0.0,0.0,90,0.00,-RA,,0.03,WeatherDisplay:10.37,2013-10-17 19:53:00,
2013-10-17 15:58:00,54.9,52.0,29.73,SE,135,0.0,0.0,90,0.00,-RA,,0.03,WeatherDisplay:10.37,2013-10-17 19:58:00,
2013-10-17 16:03:00,54.9,52.0,29.73,SE,135,0.0,0.0,90,0.00,OVC,,0.03,WeatherDisplay:10.37,2013-10-17 20:03:00,
2013-10-17 16:08:00,54.9,52.0,29.73,SE,135,0.0,0.0,90,0.00,OVC,,0.03,WeatherDisplay:10.37,2013-10-17 20:08:00,
2013-10-17 16:13:00,54.9,52.0,29.73,SE,135,0.0,0.0,90,0.00,OVC,,0.03,WeatherDisplay:10.37,2013-10-17 20:13:00,
2013-10-17 16:18:00,54.9,52.0,29.73,SE,135,0.0,0.0,90,0.00,OVC,,0.03,WeatherDisplay:10.37,2013-10-17 20:18:00,
2013-10-17 16:23:00,54.9,52.0,29.73,SE,135,0.0,0.0,90,0.00,OVC,,0.03,WeatherDisplay:10.37,2013-10-17 20:23:00,
2013-10-17 16:28:00,54.9,52.0,29.73,SE,135,0.0,0.0,90,0.00,OVC,,0.03,WeatherDisplay:10.37,2013-10-17 20:28:00,
2013-10-17 16:33:00,54.9,52.0,29.73,SE,135,0.0,0.0,90,0.00,-RA,,0.03,WeatherDisplay:10.37,2013-10-17 20:33:00,
2013-10-17 16:38:00,54.9,52.0,29.73,SE,135,0.0,0.0,90,0.00,-RA,,0.03,WeatherDisplay:10.37,2013-10-17 20:38:00,
2013-10-17 16:43:00,54.9,52.0,29.73,SE,135,0.0,0.0,90,0.00,-RA,,0.03,WeatherDisplay:10.37,2013-10-17 20:43:00,
2013-10-17 16:48:00,54.9,52.0,29.73,SE,135,0.0,0.0,90,0.00,-RA,,0.03,WeatherDisplay:10.37,2013-10-17 20:48:00,
2013-10-17 16:53:00,54.9,52.0,29.73,SE,135,0.0,0.0,90,0.00,-RA,,0.03,WeatherDisplay:10.37,2013-10-17 20:53:00,
2013-10-17 16:58:00,54.9,52.0,29.73,SE,135,0.0,0.0,90,0.00,-RA,,0.03,WeatherDisplay:10.37,2013-10-17 20:58:00,
2013-10-17 17:03:00,54.9,52.0,29.73,SE,135,0.0,0.0,90,0.00, +RA,,0.03,WeatherDisplay:10.37,2013-10-17 21:03:00,
2013-10-17 17:08:00,54.9,52.0,29.73,SE,135,0.0,0.0,90,0.00, +RA,,0.03,WeatherDisplay:10.37,2013-10-17 21:08:00,
2013-10-17 17:13:00,54.9,52.0,29.73,SE,135,0.0,0.0,90,0.00, +RA,,0.03,WeatherDisplay:10.37,2013-10-17 21:13:00,
2013-10-17 17:18:00,54.9,52.0,29.73,SE,135,0.0,0.0,90,0.00, +RA,,0.03,WeatherDisplay:10.37,2013-10-17 21:18:00,
2013-10-17 17:23:00,54.9,52.0,29.73,SE,135,0.0,0.0,90,0.00, +RA,,0.03,WeatherDisplay:10.37,2013-10-17 21:23:00,
2013-10-17 17:28:00,54.9,52.0,29.73,SE,135,0.0,0.0,90,0.00, +RA,,0.03,WeatherDisplay:10.37,2013-10-17 21:28:00,
2013-10-17 17:36:00,51.4,50.6,29.59,WSW,248,11.9,12.8,97,0.00, +RA,,0.03,WeatherDisplay:10.37,2013-10-17 21:36:00,
2013-10-17 17:41:00,51.3,50.5,29.59,West,270,7.8,7.8,97,0.00, +RA,,0.03,WeatherDisplay:10.37,2013-10-17 21:41:00,
2013-10-17 17:46:00,51.1,50.3,29.56,NNW,338,6.9,6.9,97,0.00, +RA,,0.03,WeatherDisplay:10.37,2013-10-17 21:46:00,
2013-10-17 17:51:00,51.1,50.0,29.56,WNW,292,5.8,5.8,96,0.00, +RA,,0.03,WeatherDisplay:10.37,2013-10-17 21:51:00,
2013-10-17 17:56:00,51.3,50.2,29.56,WNW,292,4.2,4.2,96,0.01, +RA,,0.04,WeatherDisplay:10.37,2013-10-17 21:56:00,
2013-10-17 18:01:00,51.3,50.2,29.57,West,270,1.7,1.7,96,0.01,-RA,,0.04,WeatherDisplay:10.37,2013-10-17 22:01:00,
2013-10-17 18:06:00,51.3,50.2,29.57,West,270,5.3,5.3,96,0.01,-RA,,0.04,WeatherDisplay:10.37,2013-10-17 22:06:00,
2013-10-17 18:11:00,51.3,50.2,29.57,SW,225,3.5,3.5,96,0.01,-RA,,0.04,WeatherDisplay:10.37,2013-10-17 22:11:00,
2013-10-17 18:16:00,51.3,50.2,29.57,SW,225,5.8,5.8,96,0.01,-RA,,0.04,WeatherDisplay:10.37,2013-10-17 22:16:00,
2013-10-17 18:21:00,51.3,50.2,29.57,WSW,248,8.8,8.8,96,0.01,-RA,,0.04,WeatherDisplay:10.37,2013-10-17 22:21:00,
2013-10-17 18:26:00,51.3,50.2,29.60,WSW,248,4.7,4.7,96,0.01,-RA,,0.04,WeatherDisplay:10.37,2013-10-17 22:26:00,
2013-10-17 18:31:00,51.3,50.2,29.60,WSW,248,5.8,5.8,96,0.01,-RA,,0.04,WeatherDisplay:10.37,2013-10-17 22:31:00,
2013-10-17 18:36:00,51.3,50.2,29.61,West,270,4.7,4.7,96,0.01,-RA,,0.04,WeatherDisplay:10.37,2013-10-17 22:36:00,
2013-10-17 18:41:00,51.3,50.2,29.61,SSW,202,8.3,8.3,96,0.01,-RA,,0.04,WeatherDisplay:10.37,2013-10-17 22:41:00,
2013-10-17 18:46:00,51.3,50.2,29.62,SW,225,7.3,7.3,96,0.02,-RA,,0.05,WeatherDisplay:10.37,2013-10-17 22:46:00,
2013-10-17 18:51:00,51.1,50.0,29.62,WSW,248,7.3,7.3,96,0.02,-RA,,0.05,WeatherDisplay:10.37,2013-10-17 22:51:00,
2013-10-17 18:56:00,51.1,50.0,29.62,WSW,248,7.3,7.3,96,0.01,-RA,,0.05,WeatherDisplay:10.37,2013-10-17 22:56:00,
2013-10-17 19:01:00,50.7,49.6,29.63,SW,225,16.1,16.1,96,0.01,OVC,,0.05,WeatherDisplay:10.37,2013-10-17 23:01:00,
2013-10-17 19:06:00,50.9,49.8,29.63,West,270,9.2,9.2,96,0.01,OVC,,0.05,WeatherDisplay:10.37,2013-10-17 23:06:00,
2013-10-17 19:11:00,50.7,49.6,29.64,WSW,248,11.5,11.5,96,0.01,OVC,,0.05,WeatherDisplay:10.37,2013-10-17 23:11:00,
2013-10-17 19:16:00,50.5,49.4,29.64,WSW,248,10.4,10.4,96,0.01,OVC,,0.05,WeatherDisplay:10.37,2013-10-17 23:16:00,
2013-10-17 19:21:00,50.5,49.4,29.64,SW,225,11.5,11.5,96,0.01,OVC,,0.05,WeatherDisplay:10.37,2013-10-17 23:21:00,
2013-10-17 19:26:00,50.5,49.1,29.65,SSW,202,10.4,10.4,95,0.01,OVC,,0.05,WeatherDisplay:10.37,2013-10-17 23:26:00,
2013-10-17 19:31:00,50.4,49.0,29.65,SW,225,10.4,10.4,95,0.01,OVC,,0.05,WeatherDisplay:10.37,2013-10-17 23:31:00,
2013-10-17 19:36:00,50.2,48.8,29.66,WSW,248,13.0,13.0,95,0.01,OVC,,0.05,WeatherDisplay:10.37,2013-10-17 23:36:00,
2013-10-17 19:41:00,50.0,48.3,29.66,WSW,248,11.5,11.5,94,0.01,OVC,,0.05,WeatherDisplay:10.37,2013-10-17 23:41:00,
2013-10-17 19:46:00,49.8,48.1,29.66,SW,225,13.0,13.0,94,0.00,OVC,,0.05,WeatherDisplay:10.37,2013-10-17 23:46:00,
2013-10-17 19:51:00,49.8,48.1,29.67,SW,225,11.5,11.5,94,0.00,OVC,,0.05,WeatherDisplay:10.37,2013-10-17 23:51:00,
2013-10-17 19:56:00,49.6,47.7,29.67,WSW,248,15.0,15.0,93,0.00,OVC,,0.05,WeatherDisplay:10.37,2013-10-17 23:56:00,
2013-10-17 20:01:00,49.6,47.7,29.68,SW,225,11.4,11.4,93,0.00,OVC,,0.05,WeatherDisplay:10.37,2013-10-18 00:01:00,
2013-10-17 20:06:00,49.6,47.7,29.68,WSW,248,8.1,8.1,93,0.00,OVC,,0.05,WeatherDisplay:10.37,2013-10-18 00:06:00,
2013-10-17 20:11:00,49.6,47.7,29.68,SSW,202,6.9,6.9,93,0.00,OVC,,0.05,WeatherDisplay:10.37,2013-10-18 00:11:00,
2013-10-17 20:16:00,49.6,47.7,29.68,SW,225,9.2,9.2,93,0.00,OVC,,0.05,WeatherDisplay:10.37,2013-10-18 00:16:00,
2013-10-17 20:21:00,49.6,47.7,29.68,SW,225,7.3,7.3,93,0.00,OVC,,0.05,WeatherDisplay:10.37,2013-10-18 00:21:00,
2013-10-17 20:26:00,49.6,47.7,29.69,WSW,248,10.4,10.4,93,0.00,OVC,,0.05,WeatherDisplay:10.37,2013-10-18 00:26:00,
2013-10-17 20:31:00,49.6,47.7,29.69,West,270,13.8,13.8,93,0.00,OVC,,0.05,WeatherDisplay:10.37,2013-10-18 00:31:00,
2013-10-17 20:36:00,49.5,47.6,29.69,SW,225,13.8,13.8,93,0.00,OVC,,0.05,WeatherDisplay:10.37,2013-10-18 00:36:00,
2013-10-17 20:41:00,49.3,47.4,29.69,WSW,248,13.5,13.5,93,0.00,OVC,,0.05,WeatherDisplay:10.37,2013-10-18 00:41:00,
2013-10-17 20:46:00,49.3,47.4,29.69,SW,225,10.4,10.4,93,0.00,OVC,,0.05,WeatherDisplay:10.37,2013-10-18 00:46:00,
2013-10-17 20:51:00,49.1,47.2,29.69,SW,225,11.5,11.5,93,0.00,OVC,,0.05,WeatherDisplay:10.37,2013-10-18 00:51:00,
2013-10-17 20:56:00,49.1,47.2,29.69,SSW,202,5.8,5.8,93,0.00,OVC,,0.05,WeatherDisplay:10.37,2013-10-18 00:56:00,
2013-10-17 21:01:00,49.1,47.2,29.70,West,270,5.8,6.0,93,0.00,OVC,,0.05,WeatherDisplay:10.37,2013-10-18 01:01:00,
2013-10-17 21:06:00,49.1,47.2,29.70,WSW,248,7.3,7.3,93,0.00,OVC,,0.05,WeatherDisplay:10.37,2013-10-18 01:06:00,
2013-10-17 21:11:00,49.1,47.2,29.70,SW,225,9.2,9.2,93,0.00,OVC,,0.05,WeatherDisplay:10.37,2013-10-18 01:11:00,
2013-10-17 21:16:00,49.1,47.2,29.70,SW,225,8.1,8.1,93,0.00,OVC,,0.05,WeatherDisplay:10.37,2013-10-18 01:16:00,
2013-10-17 21:21:00,49.1,47.2,29.70,WSW,248,9.2,9.2,93,0.00,OVC,,0.05,WeatherDisplay:10.37,2013-10-18 01:21:00,
2013-10-17 21:26:00,48.9,47.0,29.71,WSW,248,10.4,10.4,93,0.00,OVC,,0.05,WeatherDisplay:10.37,2013-10-18 01:26:00,
2013-10-17 21:31:00,48.9,47.0,29.71,SW,225,10.4,10.4,93,0.00,OVC,,0.05,WeatherDisplay:10.37,2013-10-18 01:31:00,
2013-10-17 21:36:00,48.9,47.0,29.71,SW,225,8.1,8.1,93,0.00,OVC,,0.05,WeatherDisplay:10.37,2013-10-18 01:36:00,
2013-10-17 21:41:00,48.9,47.0,29.71,SW,225,9.2,9.2,93,0.00,OVC,,0.05,WeatherDisplay:10.37,2013-10-18 01:41:00,
2013-10-17 21:46:00,48.9,47.0,29.71,West,270,8.1,8.1,93,0.00,OVC,,0.05,WeatherDisplay:10.37,2013-10-18 01:46:00,
2013-10-17 21:51:00,48.9,47.0,29.71,WSW,248,6.3,6.3,93,0.00,OVC,,0.05,WeatherDisplay:10.37,2013-10-18 01:51:00,
2013-10-17 21:56:00,48.9,47.0,29.71,SW,225,5.8,5.8,93,0.00,OVC,,0.05,WeatherDisplay:10.37,2013-10-18 01:56:00,
2013-10-17 22:01:00,48.9,47.0,29.72,WSW,248,6.9,6.9,93,0.00,OVC,,0.05,WeatherDisplay:10.37,2013-10-18 02:01:00,
2013-10-17 22:06:00,48.7,46.8,29.72,SW,225,8.1,8.1,93,0.00,OVC,,0.05,WeatherDisplay:10.37,2013-10-18 02:06:00,
2013-10-17 22:11:00,48.7,46.8,29.72,SW,225,9.2,9.2,93,0.00,OVC,,0.05,WeatherDisplay:10.37,2013-10-18 02:11:00,
2013-10-17 22:16:00,48.7,46.8,29.72,SW,225,9.2,9.2,93,0.00,OVC,,0.05,WeatherDisplay:10.37,2013-10-18 02:16:00,
2013-10-17 22:21:00,48.7,46.8,29.72,WSW,248,9.2,9.2,93,0.00,OVC,,0.05,WeatherDisplay:10.37,2013-10-18 02:21:00,
2013-10-17 22:26:00,48.7,46.8,29.72,SSW,202,10.4,10.4,93,0.00,OVC,,0.05,WeatherDisplay:10.37,2013-10-18 02:26:00,
2013-10-17 22:31:00,48.7,46.8,29.72,WSW,248,8.1,8.1,93,0.00,OVC,,0.05,WeatherDisplay:10.37,2013-10-18 02:31:00,
2013-10-17 22:36:00,48.7,46.8,29.72,SW,225,9.2,9.2,93,0.00,OVC,,0.05,WeatherDisplay:10.37,2013-10-18 02:36:00,
2013-10-17 22:41:00,48.6,46.7,29.72,SW,225,12.7,12.7,93,0.00,OVC,,0.05,WeatherDisplay:10.37,2013-10-18 02:41:00,
2013-10-17 22:46:00,48.6,46.7,29.72,SW,225,10.4,10.4,93,0.00,OVC,,0.05,WeatherDisplay:10.37,2013-10-18 02:46:00,
2013-10-17 22:51:00,48.6,46.7,29.72,SW,225,6.9,6.9,93,0.00,OVC,,0.05,WeatherDisplay:10.37,2013-10-18 02:51:00,
2013-10-17 22:56:00,48.6,46.7,29.72,West,270,9.4,9.4,93,0.00,OVC,,0.05,WeatherDisplay:10.37,2013-10-18 02:56:00,
2013-10-17 23:01:00,48.4,46.5,29.72,SW,225,8.1,8.2,93,0.00,OVC,,0.05,WeatherDisplay:10.37,2013-10-18 03:01:00,
2013-10-17 23:06:00,48.4,46.5,29.72,SW,225,8.1,8.1,93,0.00,OVC,,0.05,WeatherDisplay:10.37,2013-10-18 03:06:00,
2013-10-17 23:11:00,48.4,46.5,29.71,SSW,202,8.3,8.3,93,0.00,OVC,,0.05,WeatherDisplay:10.37,2013-10-18 03:11:00,
2013-10-17 23:16:00,48.4,46.5,29.71,SW,225,6.9,6.9,93,0.00,OVC,,0.05,WeatherDisplay:10.37,2013-10-18 03:16:00,
2013-10-17 23:21:00,48.4,46.5,29.71,SW,225,8.1,8.1,93,0.00,OVC,,0.05,WeatherDisplay:10.37,2013-10-18 03:21:00,
2013-10-17 23:26:00,48.4,46.5,29.72,SSW,202,8.1,8.1,93,0.00,OVC,,0.05,WeatherDisplay:10.37,2013-10-18 03:26:00,
2013-10-17 23:31:00,48.4,46.5,29.72,SW,225,8.3,8.3,93,0.00,OVC,,0.05,WeatherDisplay:10.37,2013-10-18 03:31:00,
2013-10-17 23:36:00,48.4,46.5,29.72,SSW,202,8.1,8.1,93,0.00,OVC,,0.05,WeatherDisplay:10.37,2013-10-18 03:36:00,
2013-10-17 23:41:00,48.4,46.5,29.72,WSW,248,8.8,8.8,93,0.00,OVC,,0.05,WeatherDisplay:10.37,2013-10-18 03:41:00,
2013-10-17 23:46:00,48.4,46.5,29.72,SW,225,9.2,9.2,93,0.00,OVC,,0.05,WeatherDisplay:10.37,2013-10-18 03:46:00,
2013-10-17 23:51:00,48.4,46.5,29.72,SW,225,8.3,8.3,93,0.00,OVC,,0.05,WeatherDisplay:10.37,2013-10-18 03:51:00,
2013-10-17 23:56:00,48.4,46.5,29.72,SW,225,8.1,8.1,93,0.00,OVC,,0.05,WeatherDisplay:10.37,2013-10-18 03:56:00,